Time;durP1;ratioP1;P1;durP2;ratioP2;P2;SDS_P1;SDS_P2;PMS_P1;PMS_P2;Temp;Humidity;BMP_temperature;BMP_pressure;BME280_temperature;BME280_humidity;BME280_pressure;Samples;Min_cycle;Max_cycle;Signal;HPM_P1;HPM_P2
2021/03/16 00:01:42;458790.00;1.53;790.90;111067.00;0.37;192.67;;;;;11.40;1.00;;;;;;2279804;61;1043;-87
2021/03/16 00:04:09;169543.00;0.57;293.48;0.00;0.00;0.62;;;;;11.30;1.00;;;;;;2269819;61;1422;-88
2021/03/16 00:06:38;6706.00;0.02;12.24;0.00;0.00;0.62;;;;;11.50;1.00;;;;;;2279830;61;978;-89
2021/03/16 00:09:05;76149.00;0.25;132.38;0.00;0.00;0.62;;;;;11.20;1.00;;;;;;2279719;61;1982;-87
2021/03/16 00:11:31;335361.00;1.12;578.70;39014.00;0.13;68.18;;;;;11.20;1.00;;;;;;2279914;61;969;-86
2021/03/16 00:13:58;41529.00;0.14;72.53;0.00;0.00;0.62;;;;;11.10;1.00;;;;;;2267545;61;1443;-88
2021/03/16 00:16:26;189924.00;0.63;328.58;4003.00;0.01;7.56;;;;;11.20;1.00;;;;;;2267729;61;1045;-87
2021/03/16 00:18:53;52124.00;0.17;90.86;0.00;0.00;0.62;;;;;11.60;1.00;;;;;;2267438;61;1033;-87
2021/03/16 00:21:20;0.00;0.00;0.62;0.00;0.00;0.62;;;;;11.40;1.00;;;;;;2257757;61;1011;-87
2021/03/16 00:23:46;14033.00;0.05;24.94;0.00;0.00;0.62;;;;;11.70;1.00;;;;;;2267641;61;1342;-87
2021/03/16 00:26:13;76433.00;0.25;132.88;0.00;0.00;0.62;;;;;11.70;1.00;;;;;;2260959;61;1035;-88
2021/03/16 00:28:39;21253.00;0.07;37.44;0.00;0.00;0.62;;;;;11.80;1.00;;;;;;2267710;61;1912;-87
2021/03/16 00:31:06;43987.00;0.15;76.79;0.00;0.00;0.62;;;;;11.50;1.00;;;;;;2269040;61;943;-88
2021/03/16 00:33:32;0.00;0.00;0.62;0.00;0.00;0.62;;;;;11.00;1.00;;;;;;2279810;60;1457;-87
2021/03/16 00:36:00;205568.00;0.69;355.51;0.00;0.00;0.62;;;;;11.10;1.00;;;;;;2267554;61;1012;-87
2021/03/16 00:38:27;121912.00;0.41;211.38;0.00;0.00;0.62;;;;;10.60;1.00;;;;;;2267660;61;981;-87
2021/03/16 00:40:53;66730.00;0.22;116.11;0.00;0.00;0.62;;;;;10.80;1.00;;;;;;2257486;61;982;-87
2021/03/16 00:43:20;0.00;0.00;0.62;0.00;0.00;0.62;;;;;10.20;1.00;;;;;;2257700;61;992;-88
2021/03/16 00:45:47;137523.00;0.46;238.30;6669.00;0.02;12.18;;;;;9.80;1.00;;;;;;2267646;61;1479;-88
2021/03/16 00:48:18;0.00;0.00;0.62;0.00;0.00;0.62;;;;;9.30;1.00;;;;;;2267625;61;1032;-89
2021/03/16 00:50:45;99737.00;0.33;173.12;0.00;0.00;0.62;;;;;9.50;1.00;;;;;;2267614;61;1923;-88
2021/03/16 00:53:13;11794.00;0.04;21.06;0.00;0.00;0.62;;;;;9.50;1.00;;;;;;2265300;61;923;-88
2021/03/16 00:55:39;127050.00;0.42;220.24;0.00;0.00;0.62;;;;;9.50;1.00;;;;;;2269314;61;1318;-87
2021/03/16 00:58:06;39199.00;0.13;68.50;0.00;0.00;0.62;;;;;9.40;1.00;;;;;;2269611;61;985;-88
2021/03/16 01:00:32;9843.00;0.03;17.68;0.00;0.00;0.62;;;;;9.60;1.00;;;;;;2269646;61;983;-90
2021/03/16 01:02:59;106785.00;0.36;185.28;25245.00;0.08;44.35;;;;;9.60;1.00;;;;;;2268243;61;965;-87
2021/03/16 01:08:48;0.00;0.00;0.62;0.00;0.00;0.62;;;;;9.50;1.00;;;;;;2268254;61;1916;-88
2021/03/16 01:11:14;88341.00;0.29;153.44;0.00;0.00;0.62;;;;;9.20;1.00;;;;;;2263636;61;993;-88
2021/03/16 01:13:41;13490.00;0.04;24.00;0.00;0.00;0.62;;;;;9.00;1.00;;;;;;2265622;61;1455;-90
2021/03/16 01:16:08;0.00;0.00;0.62;0.00;0.00;0.62;;;;;9.00;1.00;;;;;;2265579;61;992;-90
2021/03/16 01:18:34;54763.00;0.18;95.42;0.00;0.00;0.62;;;;;9.20;1.00;;;;;;2272340;61;1041;-89
2021/03/16 01:21:01;94366.00;0.31;163.85;26372.00;0.09;46.30;;;;;9.40;1.00;;;;;;2268252;61;1026;-90
2021/03/16 01:23:27;91544.00;0.31;158.97;0.00;0.00;0.62;;;;;9.50;1.00;;;;;;2268951;61;1323;-88
2021/03/16 01:25:54;35846.00;0.12;62.70;0.00;0.00;0.62;;;;;9.30;1.00;;;;;;2272304;61;1420;-88
2021/03/16 01:28:21;72330.00;0.24;125.79;0.00;0.00;0.62;;;;;10.20;1.00;;;;;;2268910;61;1045;-88
2021/03/16 01:30:47;47772.00;0.16;83.33;0.00;0.00;0.62;;;;;10.80;1.00;;;;;;2268896;61;2010;-89
2021/03/16 01:33:14;39531.00;0.13;69.08;0.00;0.00;0.62;;;;;11.00;1.00;;;;;;2268891;61;963;-89
2021/03/16 01:35:40;26658.00;0.09;46.80;0.00;0.00;0.62;;;;;11.10;1.00;;;;;;2260073;61;1291;-87
2021/03/16 01:38:07;12934.00;0.04;23.03;0.00;0.00;0.62;;;;;11.50;1.00;;;;;;2261025;61;1023;-89
2021/03/16 01:40:36;0.00;0.00;0.62;0.00;0.00;0.62;;;;;11.80;1.00;;;;;;2268248;61;1029;-89
2021/03/16 01:43:11;169449.00;0.56;293.32;0.00;0.00;0.62;;;;;11.80;1.00;;;;;;2258280;61;1014;-88
2021/03/16 01:45:38;46632.00;0.16;81.36;0.00;0.00;0.62;;;;;11.70;1.00;;;;;;2258222;61;1470;-89
2021/03/16 01:48:06;0.00;0.00;0.62;0.00;0.00;0.62;;;;;11.10;1.00;;;;;;2261453;61;1031;-89
2021/03/16 01:50:34;17290.00;0.06;30.58;0.00;0.00;0.62;;;;;10.30;1.00;;;;;;2268186;61;1989;-88
2021/03/16 01:53:03;50490.00;0.17;88.03;0.00;0.00;0.62;;;;;10.30;1.00;;;;;;2270800;60;1044;-90
2021/03/16 01:55:31;135035.00;0.45;234.01;13816.00;0.05;24.56;;;;;10.20;1.00;;;;;;2272118;61;1367;-89
2021/03/16 01:57:58;89000.00;0.30;154.58;0.00;0.00;0.62;;;;;10.10;1.00;;;;;;2268805;61;948;-86
2021/03/16 02:03:49;52402.00;0.17;91.34;0.00;0.00;0.62;;;;;10.00;1.00;;;;;;2256046;61;1305;-89
2021/03/16 02:06:25;0.00;0.00;0.62;0.00;0.00;0.62;;;;;9.70;1.00;;;;;;2255939;61;1559;-88
2021/03/16 02:09:00;240969.00;0.80;416.42;86656.00;0.29;150.53;;;;;10.10;1.00;;;;;;2249473;61;1989;-89
2021/03/16 02:11:34;295707.00;0.99;510.54;82406.00;0.27;143.19;;;;;10.60;1.00;;;;;;2249408;61;967;-87
2021/03/16 02:14:11;525537.00;1.75;905.80;76806.00;0.26;133.52;;;;;10.80;1.00;;;;;;2261849;61;1297;-89
2021/03/16 02:16:43;516078.00;1.72;889.51;90143.00;0.30;156.55;;;;;10.10;1.00;;;;;;2256020;61;995;-87
2021/03/16 02:19:23;397809.00;1.33;686.04;82646.00;0.28;143.61;;;;;9.40;1.00;;;;;;2256678;61;965;-89
2021/03/16 02:21:51;247113.00;0.82;426.99;0.00;0.00;0.62;;;;;9.10;1.00;;;;;;2260070;61;1162;-87
2021/03/16 02:24:39;781495.00;2.60;1348.87;191916.00;0.64;332.01;;;;;8.80;1.00;;;;;;2250092;61;1306;-88
2021/03/16 02:27:12;274924.00;0.92;474.81;0.00;0.00;0.62;;;;;8.90;1.00;;;;;;2263270;61;1026;-90
2021/03/16 02:29:45;399098.00;1.33;688.25;100907.00;0.34;175.14;;;;;8.50;1.00;;;;;;2271989;61;1994;-88
2021/03/16 02:32:19;45639.00;0.15;79.64;0.00;0.00;0.62;;;;;8.70;1.00;;;;;;2265386;61;1006;-90
2021/03/16 02:34:51;198095.00;0.66;342.64;81140.00;0.27;141.01;;;;;8.50;1.00;;;;;;2268430;61;1429;-89
2021/03/16 02:37:20;184205.00;0.61;318.73;74782.00;0.25;130.02;;;;;8.70;1.00;;;;;;2259942;61;1010;-88
2021/03/16 02:39:49;335688.00;1.12;579.26;86189.00;0.29;149.73;;;;;8.70;1.00;;;;;;2259957;61;1046;-88
2021/03/16 02:42:18;216822.00;0.72;374.88;82958.00;0.28;144.15;;;;;9.00;1.00;;;;;;2255884;61;1023;-88
2021/03/16 02:44:47;257688.00;0.86;445.17;88514.00;0.30;153.74;;;;;9.60;1.00;;;;;;2255934;61;1321;-88
2021/03/16 02:47:15;316596.00;1.06;546.45;80746.00;0.27;140.33;;;;;10.10;1.00;;;;;;2255998;61;1136;-89
2021/03/16 02:49:44;182718.00;0.61;316.17;84702.00;0.28;147.16;;;;;10.00;1.00;;;;;;2251795;61;2000;-89
2021/03/16 02:52:12;203925.00;0.68;352.68;85159.00;0.28;147.95;;;;;9.60;1.00;;;;;;2252914;61;1070;-88
2021/03/16 02:54:40;251834.00;0.84;435.11;76028.00;0.25;132.18;;;;;9.60;1.00;;;;;;2258358;61;1413;-88
2021/03/16 02:57:08;309399.00;1.03;534.08;87547.00;0.29;152.07;;;;;9.10;1.00;;;;;;2268008;61;1030;-88
2021/03/16 02:59:37;200707.00;0.67;347.14;81752.00;0.27;142.06;;;;;9.20;1.00;;;;;;2268762;61;901;-89
2021/03/16 03:02:06;253606.00;0.85;438.15;73061.00;0.24;127.05;;;;;9.50;1.00;;;;;;2268545;61;942;-88
2021/03/16 03:04:35;562506.00;1.88;969.52;200567.00;0.67;346.90;;;;;9.90;1.00;;;;;;2268548;61;1353;-88
2021/03/16 03:07:03;420653.00;1.40;725.31;81687.00;0.27;141.95;;;;;10.10;1.00;;;;;;2273593;60;990;-90
2021/03/16 03:09:32;265804.00;0.89;459.13;88338.00;0.29;153.44;;;;;10.30;1.00;;;;;;2273391;60;2012;-88
2021/03/16 03:11:59;437906.00;1.46;754.98;84772.00;0.28;147.28;;;;;10.20;1.00;;;;;;2271877;61;994;-88
2021/03/16 03:14:27;444558.00;1.48;766.42;80824.00;0.27;140.46;;;;;9.90;1.00;;;;;;2263803;61;1444;-89
2021/03/16 03:16:55;284104.00;0.95;490.59;92787.00;0.31;161.12;;;;;9.80;1.00;;;;;;2263838;61;1026;-89
2021/03/16 03:19:22;253235.00;0.84;437.51;88196.00;0.29;153.19;;;;;9.90;1.00;;;;;;2257046;61;1060;-89
2021/03/16 03:21:57;254647.00;0.85;439.94;77921.00;0.26;135.45;;;;;9.90;1.00;;;;;;2255747;61;981;-88
2021/03/16 03:24:30;394371.00;1.31;680.13;88360.00;0.29;153.48;;;;;9.50;1.00;;;;;;2243804;62;1369;-87
2021/03/16 03:27:02;401505.00;1.34;692.39;81466.00;0.27;141.57;;;;;9.50;1.00;;;;;;2240580;62;959;-88
2021/03/16 03:29:31;507311.00;1.69;874.41;88507.00;0.30;153.73;;;;;9.80;1.00;;;;;;2246024;61;1985;-89
2021/03/16 03:31:59;420353.00;1.40;724.80;83003.00;0.28;144.22;;;;;9.90;1.00;;;;;;2252992;61;1017;-88
2021/03/16 03:34:27;385975.00;1.29;665.70;80750.00;0.27;140.33;;;;;9.90;1.00;;;;;;2255814;61;1349;-88
2021/03/16 03:36:56;276589.00;0.92;477.67;101769.00;0.34;176.63;;;;;9.90;1.00;;;;;;2255817;61;1022;-89
2021/03/16 03:39:26;338140.00;1.13;583.48;87273.00;0.29;151.60;;;;;9.60;1.00;;;;;;2254181;61;998;-88
2021/03/16 03:44:39;257540.00;0.86;444.92;81504.00;0.27;141.64;;;;;9.00;1.00;;;;;;2280046;60;1529;-89
2021/03/16 03:47:09;851516.00;2.84;1471.12;96584.00;0.32;167.68;;;;;9.10;1.00;;;;;;2274637;61;1386;-89
2021/03/16 03:49:39;432613.00;1.44;745.88;0.00;0.00;0.62;;;;;9.50;1.00;;;;;;2273284;61;1986;-89
2021/03/16 03:52:07;351092.00;1.17;605.74;0.00;0.00;0.62;;;;;9.50;1.00;;;;;;2273276;61;1128;-89
2021/03/16 03:54:35;312934.00;1.04;540.15;0.00;0.00;0.62;;;;;9.80;1.00;;;;;;2273268;61;1351;-89
2021/03/16 03:57:04;245917.00;0.82;424.93;0.00;0.00;0.62;;;;;9.30;1.00;;;;;;2271732;61;976;-89
2021/03/16 03:59:32;413447.00;1.38;712.92;0.00;0.00;0.62;;;;;9.10;1.00;;;;;;2271805;61;1045;-89
2021/03/16 04:01:59;397927.00;1.33;686.24;0.00;0.00;0.62;;;;;9.20;1.00;;;;;;2271817;61;1015;-88
2021/03/16 04:04:29;175510.00;0.59;303.76;0.00;0.00;0.62;;;;;9.50;1.00;;;;;;2265021;61;1478;-89
2021/03/16 04:06:58;224141.00;0.75;387.47;0.00;0.00;0.62;;;;;10.10;1.00;;;;;;2268407;61;1025;-88
2021/03/16 04:09:24;337779.00;1.13;582.86;31286.00;0.10;54.81;;;;;10.30;1.00;;;;;;2265050;61;1916;-89
2021/03/16 04:11:52;437703.00;1.46;754.63;0.00;0.00;0.62;;;;;10.40;1.00;;;;;;2265088;61;1163;-89
2021/03/16 04:14:19;449849.00;1.50;775.52;0.00;0.00;0.62;;;;;10.40;1.00;;;;;;2266533;61;1393;-89
2021/03/16 04:16:46;209290.00;0.70;361.91;0.00;0.00;0.62;;;;;10.30;1.00;;;;;;2273223;61;1007;-89
2021/03/16 04:19:13;244704.00;0.82;422.84;0.00;0.00;0.62;;;;;10.60;1.00;;;;;;2271704;61;968;-89
2021/03/16 04:21:41;262500.00;0.88;453.45;0.00;0.00;0.62;;;;;10.60;1.00;;;;;;2265083;61;1009;-88
2021/03/16 04:24:09;305034.00;1.02;526.57;0.00;0.00;0.62;;;;;11.00;1.00;;;;;;2265030;61;1432;-89
2021/03/16 04:26:35;356959.00;1.19;615.82;0.00;0.00;0.62;;;;;11.30;1.00;;;;;;2267613;61;1001;-88
2021/03/16 04:29:02;459080.00;1.53;791.40;0.00;0.00;0.62;;;;;11.30;1.00;;;;;;2257706;61;1998;-87
2021/03/16 04:31:29;305313.00;1.02;527.05;0.00;0.00;0.62;;;;;11.40;1.00;;;;;;2261623;61;1037;-87
2021/03/16 04:33:55;351294.00;1.17;606.09;0.00;0.00;0.62;;;;;11.20;1.00;;;;;;2268355;61;1405;-88
2021/03/16 04:36:22;301073.00;1.00;519.76;0.00;0.00;0.62;;;;;10.90;1.00;;;;;;2262730;61;967;-86
2021/03/16 04:38:48;430188.00;1.43;741.71;0.00;0.00;0.62;;;;;11.10;1.00;;;;;;2276493;61;958;-88
2021/03/16 04:41:16;269942.00;0.90;466.24;0.00;0.00;0.62;;;;;11.30;1.00;;;;;;2268291;61;934;-87
2021/03/16 04:43:45;637286.00;2.12;1098.65;12281.00;0.04;21.90;;;;;11.50;1.00;;;;;;2260642;61;1273;-88
2021/03/16 04:46:11;475820.00;1.59;820.20;0.00;0.00;0.62;;;;;11.80;1.00;;;;;;2262453;61;983;-88
2021/03/16 04:48:43;362126.00;1.21;624.70;0.00;0.00;0.62;;;;;11.80;1.00;;;;;;2267845;61;1025;-87
2021/03/16 04:51:10;182549.00;0.61;315.88;0.00;0.00;0.62;;;;;11.90;1.00;;;;;;2261248;61;1931;-88
2021/03/16 04:53:36;183202.00;0.61;317.00;0.00;0.00;0.62;;;;;11.90;1.00;;;;;;2261538;61;1522;-86
2021/03/16 04:56:03;330049.00;1.10;569.57;0.00;0.00;0.62;;;;;11.90;1.00;;;;;;2261664;61;1053;-87
2021/03/16 04:58:31;420369.00;1.40;724.82;0.00;0.00;0.62;;;;;11.80;1.00;;;;;;2265650;61;1054;-89
2021/03/16 05:00:57;490414.00;1.63;845.32;48663.00;0.16;84.87;;;;;11.60;1.00;;;;;;2265603;61;959;-87
2021/03/16 05:03:24;210833.00;0.70;364.57;0.00;0.00;0.62;;;;;11.50;1.00;;;;;;2272399;61;1013;-85
2021/03/16 05:05:50;192776.00;0.64;333.49;0.00;0.00;0.62;;;;;10.80;1.00;;;;;;2269631;61;1444;-87
2021/03/16 05:08:17;359804.00;1.20;620.71;0.00;0.00;0.62;;;;;10.60;1.00;;;;;;2265623;61;1071;-87
2021/03/16 05:10:43;226276.00;0.75;391.14;0.00;0.00;0.62;;;;;10.90;1.00;;;;;;2272339;61;1993;-88
2021/03/16 05:13:11;212628.00;0.71;367.66;0.00;0.00;0.62;;;;;10.80;1.00;;;;;;2272337;61;1036;-87
2021/03/16 05:15:39;291734.00;0.97;503.71;0.00;0.00;0.62;;;;;10.80;1.00;;;;;;2268107;61;1466;-87
2021/03/16 05:18:05;150854.00;0.50;261.28;0.00;0.00;0.62;;;;;10.60;1.00;;;;;;2269601;61;1004;-87
2021/03/16 05:20:32;320167.00;1.07;552.59;0.00;0.00;0.62;;;;;10.60;1.00;;;;;;2268065;61;1061;-86
2021/03/16 05:22:58;183098.00;0.61;316.82;0.00;0.00;0.62;;;;;10.30;1.00;;;;;;2268134;61;1076;-88
2021/03/16 05:25:25;250816.00;0.84;433.35;0.00;0.00;0.62;;;;;10.40;1.00;;;;;;2268144;61;1412;-88
2021/03/16 05:27:51;507235.00;1.69;874.28;0.00;0.00;0.62;;;;;10.20;1.00;;;;;;2261416;61;993;-87
2021/03/16 05:30:19;145016.00;0.48;251.22;0.00;0.00;0.62;;;;;10.40;1.00;;;;;;2261352;61;1920;-87
2021/03/16 05:32:46;409565.00;1.37;706.25;0.00;0.00;0.62;;;;;10.90;1.00;;;;;;2268560;61;1047;-87
2021/03/16 05:35:13;229921.00;0.77;397.41;0.00;0.00;0.62;;;;;10.90;1.00;;;;;;2259954;61;1314;-89
2021/03/16 05:37:40;492695.00;1.64;849.25;28085.00;0.09;49.27;;;;;11.10;1.00;;;;;;2253451;61;941;-86
2021/03/16 05:40:08;215331.00;0.72;372.31;0.00;0.00;0.62;;;;;11.10;1.00;;;;;;2254131;61;1002;-88
2021/03/16 05:42:35;427323.00;1.42;736.78;37335.00;0.12;65.28;;;;;11.10;1.00;;;;;;2255927;61;939;-88
2021/03/16 05:45:04;483163.00;1.61;832.84;0.00;0.00;0.62;;;;;11.00;1.00;;;;;;2255948;61;1407;-87
2021/03/16 05:47:30;69426.00;0.23;120.77;0.00;0.00;0.62;;;;;11.20;1.00;;;;;;2255923;61;1061;-87
2021/03/16 05:50:01;244766.00;0.82;422.95;26281.00;0.09;46.15;;;;;11.10;1.00;;;;;;2255994;61;1983;-87
2021/03/16 05:52:28;238764.00;0.80;412.63;0.00;0.00;0.62;;;;;11.10;1.00;;;;;;2257345;61;1031;-87
2021/03/16 05:54:55;379324.00;1.26;654.26;0.00;0.00;0.62;;;;;11.20;1.00;;;;;;2258599;61;1376;-89
2021/03/16 05:57:22;153930.00;0.51;266.58;0.00;0.00;0.62;;;;;11.30;1.00;;;;;;2272103;61;1019;-87
2021/03/16 05:59:49;174929.00;0.58;302.76;0.00;0.00;0.62;;;;;11.20;1.00;;;;;;2269907;61;1017;-88
2021/03/16 06:02:16;215841.00;0.72;373.19;0.00;0.00;0.62;;;;;11.20;1.00;;;;;;2280186;61;1035;-88
2021/03/16 06:04:43;374486.00;1.25;645.95;0.00;0.00;0.62;;;;;11.30;1.00;;;;;;2267898;61;1403;-88
2021/03/16 06:07:12;441734.00;1.47;761.57;0.00;0.00;0.62;;;;;11.30;1.00;;;;;;2268026;61;1050;-87
2021/03/16 06:09:39;129490.00;0.43;224.45;0.00;0.00;0.62;;;;;11.40;1.00;;;;;;2263892;61;2006;-89
2021/03/16 06:12:06;475061.00;1.58;818.90;0.00;0.00;0.62;;;;;11.60;1.00;;;;;;2263951;61;978;-88
2021/03/16 06:14:33;136678.00;0.46;236.84;0.00;0.00;0.62;;;;;11.20;1.00;;;;;;2253989;61;1311;-88
2021/03/16 06:17:01;538772.00;1.80;928.61;119392.00;0.40;207.03;;;;;11.00;1.00;;;;;;2264476;61;1012;-89
2021/03/16 06:19:29;365518.00;1.22;630.53;0.00;0.00;0.62;;;;;11.10;1.00;;;;;;2258012;61;950;-87
2021/03/16 06:22:00;426552.00;1.42;735.46;0.00;0.00;0.62;;;;;11.30;1.00;;;;;;2266435;61;979;-88
2021/03/16 06:24:28;346364.00;1.15;597.61;0.00;0.00;0.62;;;;;10.80;1.00;;;;;;2276654;61;1359;-88
2021/03/16 06:26:55;405781.00;1.35;699.74;0.00;0.00;0.62;;;;;10.60;1.00;;;;;;2280830;61;1074;-90
2021/03/16 06:29:22;333838.00;1.11;576.08;0.00;0.00;0.62;;;;;10.80;1.00;;;;;;2277411;61;1985;-89
2021/03/16 06:31:50;416139.00;1.39;717.55;73015.00;0.24;126.97;;;;;11.00;1.00;;;;;;2271836;61;1121;-88
2021/03/16 06:34:22;616115.00;2.05;1062.05;83247.00;0.28;144.65;;;;;11.00;1.00;;;;;;2271967;61;1594;-88
2021/03/16 06:36:56;550222.00;1.83;948.34;107852.00;0.36;187.12;;;;;11.30;1.00;;;;;;2259696;61;968;-87
2021/03/16 06:39:23;215460.00;0.72;372.53;0.00;0.00;0.62;;;;;11.00;1.00;;;;;;2259781;61;1046;-88
2021/03/16 06:41:51;436861.00;1.46;753.18;27610.00;0.09;48.45;;;;;10.60;1.00;;;;;;2263788;61;1079;-88
2021/03/16 06:44:19;253205.00;0.84;437.46;0.00;0.00;0.62;;;;;10.40;1.00;;;;;;2263811;61;1332;-88
2021/03/16 06:46:53;444273.00;1.48;765.93;84962.00;0.28;147.61;;;;;10.50;1.00;;;;;;2253912;61;1124;-88
2021/03/16 06:49:21;527645.00;1.76;909.43;72337.00;0.24;125.80;;;;;11.00;1.00;;;;;;2267231;61;1915;-89
2021/03/16 06:51:49;481768.00;1.61;830.44;109893.00;0.37;190.65;;;;;10.90;1.00;;;;;;2265904;61;976;-89
2021/03/16 06:54:17;632521.00;2.11;1090.41;91937.00;0.31;159.65;;;;;10.90;1.00;;;;;;2275793;61;1357;-89
2021/03/16 06:56:52;587702.00;1.96;1012.99;83725.00;0.28;145.47;;;;;10.40;1.00;;;;;;2269215;61;953;-88
2021/03/16 06:59:23;738496.00;2.46;1274.06;172867.00;0.58;299.20;;;;;10.30;1.00;;;;;;2271473;61;1037;-89
2021/03/16 07:01:49;349310.00;1.16;602.68;0.00;0.00;0.62;;;;;10.30;1.00;;;;;;2277433;61;993;-88
2021/03/16 07:04:17;467369.00;1.56;805.66;0.00;0.00;0.62;;;;;10.10;1.00;;;;;;2284524;61;1337;-89
2021/03/16 07:06:46;374008.00;1.25;645.13;90122.00;0.30;156.52;;;;;10.20;1.00;;;;;;2277332;61;964;-87
2021/03/16 07:09:14;707721.00;2.36;1220.63;71312.00;0.24;124.03;;;;;10.10;1.00;;;;;;2284543;61;1983;-89
2021/03/16 07:11:45;537303.00;1.79;926.08;82010.00;0.27;142.51;;;;;10.10;1.00;;;;;;2277353;61;1007;-87
2021/03/16 07:14:14;153510.00;0.51;265.86;0.00;0.00;0.62;;;;;10.30;1.00;;;;;;2277333;61;1473;-87
2021/03/16 07:16:41;447497.00;1.49;771.48;38664.00;0.13;67.58;;;;;10.40;1.00;;;;;;2277379;61;1017;-88
2021/03/16 07:19:08;316033.00;1.05;545.48;0.00;0.00;0.62;;;;;10.40;1.00;;;;;;2277357;61;989;-88
2021/03/16 07:21:38;329614.00;1.10;568.82;0.00;0.00;0.62;;;;;10.20;1.00;;;;;;2271743;61;965;-88
2021/03/16 07:24:09;407892.00;1.36;703.37;30515.00;0.10;53.47;;;;;10.50;1.00;;;;;;2261786;61;1456;-87
2021/03/16 07:26:37;291024.00;0.97;502.49;0.00;0.00;0.62;;;;;10.70;1.00;;;;;;2261866;61;994;-88
2021/03/16 07:29:05;319043.00;1.06;550.65;0.00;0.00;0.62;;;;;11.00;1.00;;;;;;2271811;61;1041;-88
2021/03/16 07:31:34;249070.00;0.83;430.35;0.00;0.00;0.62;;;;;10.90;1.00;;;;;;2271809;61;2026;-87
2021/03/16 07:34:05;169961.00;0.57;294.20;0.00;0.00;0.62;;;;;10.50;1.00;;;;;;2259534;61;1470;-88
2021/03/16 07:36:32;317012.00;1.06;547.16;0.00;0.00;0.62;;;;;10.60;1.00;;;;;;2259636;61;971;-88
2021/03/16 07:39:00;298850.00;1.00;515.94;0.00;0.00;0.62;;;;;10.50;1.00;;;;;;2254348;61;982;-88
2021/03/16 07:41:28;230198.00;0.77;397.89;0.00;0.00;0.62;;;;;10.80;1.00;;;;;;2259561;61;945;-88
2021/03/16 07:44:04;317364.00;1.06;547.77;0.00;0.00;0.62;;;;;10.90;1.00;;;;;;2263011;61;1389;-88
2021/03/16 07:46:43;191641.00;0.64;331.53;0.00;0.00;0.62;;;;;11.10;1.00;;;;;;2256971;61;973;-87
2021/03/16 07:49:11;59123.00;0.20;102.96;0.00;0.00;0.62;;;;;11.00;1.00;;;;;;2257021;61;1044;-88
2021/03/16 07:51:42;68002.00;0.23;118.31;0.00;0.00;0.62;;;;;11.10;1.00;;;;;;2258289;61;1121;-88
2021/03/16 07:54:10;58007.00;0.19;101.03;0.00;0.00;0.62;;;;;11.20;1.00;;;;;;2260993;61;1448;-88
2021/03/16 07:56:40;190758.00;0.64;330.01;0.00;0.00;0.62;;;;;11.40;1.00;;;;;;2255501;61;1055;-87
2021/03/16 07:59:08;44300.00;0.15;77.33;0.00;0.00;0.62;;;;;11.30;1.00;;;;;;2257070;61;1028;-87
2021/03/16 08:01:47;9146.00;0.03;16.47;0.00;0.00;0.62;;;;;11.50;1.00;;;;;;2257813;61;980;-89
2021/03/16 08:04:14;0.00;0.00;0.62;0.00;0.00;0.62;;;;;11.70;1.00;;;;;;2261531;61;1360;-89
2021/03/16 08:06:42;108122.00;0.36;187.59;30238.00;0.10;53.00;;;;;11.80;1.00;;;;;;2264928;61;1127;-88
2021/03/16 08:09:21;312093.00;1.04;538.71;0.00;0.00;0.62;;;;;11.70;1.00;;;;;;2265088;61;960;-88
2021/03/16 08:11:48;0.00;0.00;0.62;0.00;0.00;0.62;;;;;11.70;1.00;;;;;;2256916;61;936;-89
2021/03/16 08:14:25;80368.00;0.27;139.67;0.00;0.00;0.62;;;;;12.10;1.00;;;;;;2255426;61;1323;-88
2021/03/16 08:16:53;55985.00;0.19;97.54;0.00;0.00;0.62;;;;;12.00;1.00;;;;;;2256744;61;1024;-88
2021/03/16 08:19:21;743.00;0.00;1.91;0.00;0.00;0.62;;;;;11.90;1.00;;;;;;2256844;61;929;-88
2021/03/16 08:21:56;53283.00;0.18;92.86;0.00;0.00;0.62;;;;;11.50;1.00;;;;;;2252816;61;968;-89
2021/03/16 08:24:23;147914.00;0.49;256.21;0.00;0.00;0.62;;;;;11.30;1.00;;;;;;2249519;61;1365;-87
2021/03/16 08:26:51;0.00;0.00;0.62;0.00;0.00;0.62;;;;;11.20;1.00;;;;;;2252842;61;1034;-87
2021/03/16 08:29:26;30318.00;0.10;53.13;0.00;0.00;0.62;;;;;11.30;1.00;;;;;;2247066;61;2003;-86
2021/03/16 08:31:54;133415.00;0.44;231.22;0.00;0.00;0.62;;;;;11.60;1.00;;;;;;2252827;61;987;-89
2021/03/16 08:34:22;60737.00;0.20;105.75;0.00;0.00;0.62;;;;;11.50;1.00;;;;;;2249894;61;1291;-88
2021/03/16 08:36:49;52123.00;0.17;90.86;0.00;0.00;0.62;;;;;11.70;1.00;;;;;;2244960;61;1063;-88
2021/03/16 08:39:23;88543.00;0.30;153.79;0.00;0.00;0.62;;;;;11.30;1.00;;;;;;2237976;62;999;-88
2021/03/16 08:41:57;226876.00;0.76;392.17;22985.00;0.08;40.44;;;;;11.40;1.00;;;;;;2240992;62;1089;-88
2021/03/16 08:44:24;0.00;0.00;0.62;0.00;0.00;0.62;;;;;11.60;1.00;;;;;;2240918;62;1463;-87
2021/03/16 08:46:51;44350.00;0.15;77.41;0.00;0.00;0.62;;;;;11.70;1.00;;;;;;2242810;61;1061;-88
2021/03/16 08:49:19;76108.00;0.25;132.31;0.00;0.00;0.62;;;;;11.30;1.00;;;;;;2252765;61;1985;-88
2021/03/16 08:51:47;342995.00;1.14;591.82;0.00;0.00;0.62;;;;;11.10;1.00;;;;;;2248073;61;1100;-89
2021/03/16 08:54:23;147863.00;0.49;256.12;11693.00;0.04;20.88;;;;;11.20;1.00;;;;;;2261683;61;1404;-86
2021/03/16 08:56:51;141229.00;0.47;244.69;0.00;0.00;0.62;;;;;11.40;1.00;;;;;;2259336;61;1038;-88
2021/03/16 08:59:19;24423.00;0.08;42.93;0.00;0.00;0.62;;;;;11.80;1.00;;;;;;2262124;61;972;-88
2021/03/16 09:01:48;180911.00;0.60;313.06;0.00;0.00;0.62;;;;;11.60;1.00;;;;;;2265622;61;973;-87
2021/03/16 09:04:14;0.00;0.00;0.62;0.00;0.00;0.62;;;;;11.50;1.00;;;;;;2259803;61;1452;-87
2021/03/16 09:06:42;348231.00;1.16;600.82;0.00;0.00;0.62;;;;;11.20;1.00;;;;;;2272921;61;1063;-89
2021/03/16 09:09:10;48026.00;0.16;83.77;0.00;0.00;0.62;;;;;11.20;1.00;;;;;;2266194;61;1054;-88
2021/03/16 09:11:41;75047.00;0.25;130.48;0.00;0.00;0.62;;;;;10.90;1.00;;;;;;2272874;61;1985;-89
2021/03/16 09:14:11;87310.00;0.29;151.66;0.00;0.00;0.62;;;;;10.00;1.00;;;;;;2266214;61;1338;-88
2021/03/16 09:16:42;274480.00;0.91;474.05;97181.00;0.32;168.71;;;;;9.80;1.00;;;;;;2264123;61;932;-87
2021/03/16 09:19:12;0.00;0.00;0.62;0.00;0.00;0.62;;;;;10.00;1.00;;;;;;2266859;61;1081;-88
2021/03/16 09:21:53;91558.00;0.31;159.00;0.00;0.00;0.62;;;;;10.70;1.00;;;;;;2268116;61;953;-87
2021/03/16 09:24:26;75902.00;0.25;131.96;0.00;0.00;0.62;;;;;11.30;1.00;;;;;;2261559;61;1412;-88
2021/03/16 09:26:55;111062.00;0.37;192.66;0.00;0.00;0.62;;;;;11.20;1.00;;;;;;2261597;61;940;-89
2021/03/16 09:29:24;0.00;0.00;0.62;0.00;0.00;0.62;;;;;11.20;1.00;;;;;;2268143;61;1998;-88
2021/03/16 09:31:52;0.00;0.00;0.62;0.00;0.00;0.62;;;;;11.30;1.00;;;;;;2268209;61;993;-87
2021/03/16 09:34:19;72871.00;0.24;126.72;0.00;0.00;0.62;;;;;11.50;1.00;;;;;;2265421;61;1422;-87
2021/03/16 09:36:55;0.00;0.00;0.62;0.00;0.00;0.62;;;;;11.40;1.00;;;;;;2272286;61;991;-87
2021/03/16 09:39:23;118706.00;0.40;205.85;0.00;0.00;0.62;;;;;11.00;1.00;;;;;;2272267;61;1067;-88
2021/03/16 09:41:53;147817.00;0.49;256.05;0.00;0.00;0.62;;;;;11.20;1.00;;;;;;2264055;61;977;-88
2021/03/16 09:44:28;80199.00;0.27;139.38;0.00;0.00;0.62;;;;;10.90;1.00;;;;;;2259761;61;1369;-88
2021/03/16 09:49:41;18694.00;0.06;33.01;0.00;0.00;0.62;;;;;10.30;1.00;;;;;;2284204;61;1569;-87
2021/03/16 09:52:10;110076.00;0.37;190.96;0.00;0.00;0.62;;;;;11.20;1.00;;;;;;2289987;60;1330;-89
2021/03/16 09:54:44;165542.00;0.55;286.59;0.00;0.00;0.62;;;;;12.00;1.00;;;;;;2278491;60;1353;-87
2021/03/16 09:57:14;101660.00;0.34;176.44;0.00;0.00;0.62;;;;;11.90;1.00;;;;;;2280282;60;932;-89
2021/03/16 09:59:42;89624.00;0.30;155.66;0.00;0.00;0.62;;;;;11.40;1.00;;;;;;2280266;60;1020;-87
2021/03/16 10:02:11;217930.00;0.73;376.78;0.00;0.00;0.62;;;;;11.10;1.00;;;;;;2280269;60;985;-88
2021/03/16 10:04:47;0.00;0.00;0.62;0.00;0.00;0.62;;;;;11.30;1.00;;;;;;2276786;60;1444;-87
2021/03/16 10:07:25;0.00;0.00;0.62;0.00;0.00;0.62;;;;;11.20;1.00;;;;;;2280270;60;986;-88
2021/03/16 10:09:52;27832.00;0.09;48.83;0.00;0.00;0.62;;;;;11.10;1.00;;;;;;2273419;60;1919;-87
2021/03/16 10:12:21;19956.00;0.07;35.19;0.00;0.00;0.62;;;;;11.70;1.00;;;;;;2272039;61;1087;-88
2021/03/16 10:14:49;0.00;0.00;0.62;0.00;0.00;0.62;;;;;11.80;1.00;;;;;;2276159;60;1417;-87
2021/03/16 10:17:29;0.00;0.00;0.62;0.00;0.00;0.62;;;;;11.30;1.00;;;;;;2284316;60;1018;-88